Time;durP1;ratioP1;P1;durP2;ratioP2;P2;SDS_P1;SDS_P2;PMS_P1;PMS_P2;Temp;Humidity;BMP_temperature;BMP_pressure;BME280_temperature;BME280_humidity;BME280_pressure;Samples;Min_cycle;Max_cycle;Signal;HPM_P1;HPM_P2
2023/12/15 00:01:25;;;;;;;40.40;10.83;;;;;;;-5.32;100.00;101535.34;5091800;28;20051;-69
2023/12/15 00:03:51;;;;;;;25.90;6.93;;;;;;;-4.79;100.00;101601.34;5091910;28;20036;-68
2023/12/15 00:06:17;;;;;;;34.13;8.70;;;;;;;-4.92;100.00;101584.41;5092706;28;20081;-68
2023/12/15 00:08:43;;;;;;;39.83;9.13;;;;;;;-5.00;100.00;101574.25;5092935;28;20082;-72
2023/12/15 00:11:08;;;;;;;25.07;9.53;;;;;;;-4.91;100.00;101599.13;5093546;28;20032;-69
2023/12/15 00:13:34;;;;;;;37.50;8.93;;;;;;;-5.01;100.00;101592.47;5093843;28;20384;-70
2023/12/15 00:16:00;;;;;;;30.97;8.30;;;;;;;-5.07;100.00;101577.91;5091679;28;20044;-69
2023/12/15 00:18:26;;;;;;;40.47;8.60;;;;;;;-4.93;100.00;101606.06;5092772;28;20054;-69
2023/12/15 00:20:51;;;;;;;32.67;10.23;;;;;;;-5.02;100.00;101608.94;5074363;28;20028;-71
2023/12/15 00:23:17;;;;;;;37.13;9.43;;;;;;;-5.06;100.00;101603.00;5093064;28;20039;-69
2023/12/15 00:25:42;;;;;;;30.87;9.93;;;;;;;-5.02;100.00;101593.38;5092219;28;20032;-68
2023/12/15 00:28:08;;;;;;;35.53;9.37;;;;;;;-5.34;100.00;101545.78;5094491;28;20092;-68
2023/12/15 00:30:34;;;;;;;22.93;7.63;;;;;;;-5.22;100.00;101577.47;5095117;28;20032;-68
2023/12/15 00:32:59;;;;;;;33.43;7.93;;;;;;;-5.21;100.00;101563.59;5092358;28;20524;-69
2023/12/15 00:35:25;;;;;;;32.83;8.23;;;;;;;-5.11;100.00;101578.03;5091099;28;20036;-68
2023/12/15 00:37:50;;;;;;;29.40;8.17;;;;;;;-4.90;100.00;101595.63;5091983;28;20032;-68
2023/12/15 00:40:16;;;;;;;19.03;6.60;;;;;;;-5.05;100.00;101554.50;5092395;28;20054;-69
2023/12/15 00:42:44;;;;;;;34.95;10.07;;;;;;;-5.03;100.00;101566.53;5092192;28;20032;-68
2023/12/15 00:45:10;;;;;;;29.10;8.60;;;;;;;-6.18;100.00;101386.41;5091801;28;20429;-69
2023/12/15 00:47:35;;;;;;;28.47;8.53;;;;;;;-5.04;100.00;101580.41;5092293;28;20114;-68
2023/12/15 00:50:01;;;;;;;33.83;9.10;;;;;;;-5.24;100.00;101555.91;5092250;28;20040;-68
2023/12/15 00:52:29;;;;;;;28.60;9.30;;;;;;;-5.23;100.00;101545.47;5091903;28;20044;-67
2023/12/15 00:54:55;;;;;;;33.83;8.37;;;;;;;-4.98;100.00;101579.38;5091835;28;20078;-68
2023/12/15 00:57:20;;;;;;;46.87;9.37;;;;;;;-4.92;100.00;101570.56;5091701;28;20093;-68
2023/12/15 00:59:46;;;;;;;40.03;8.07;;;;;;;-4.99;100.00;101562.09;5093659;28;20040;-69
2023/12/15 01:02:11;;;;;;;40.07;9.27;;;;;;;-4.91;100.00;101575.75;5091745;28;20060;-67
2023/12/15 01:04:37;;;;;;;26.97;7.60;;;;;;;-5.20;100.00;101534.16;5091617;28;20036;-68
2023/12/15 01:07:03;;;;;;;29.83;7.30;;;;;;;-5.00;100.00;101575.97;5090626;28;20506;-68
2023/12/15 01:09:28;;;;;;;29.63;8.63;;;;;;;-5.03;100.00;101578.66;5091713;28;20043;-68
2023/12/15 01:11:54;;;;;;;28.43;7.27;;;;;;;-5.08;100.00;101571.00;5091493;28;20036;-67
2023/12/15 01:14:20;;;;;;;36.40;8.17;;;;;;;-5.07;100.00;101570.13;5056116;28;20058;-68
2023/12/15 01:16:47;;;;;;;27.20;8.07;;;;;;;-5.25;100.00;101549.00;5091179;28;20070;-67
2023/12/15 01:19:14;;;;;;;34.30;7.88;;;;;;;-5.26;100.00;101545.56;5090256;28;20434;-69
2023/12/15 01:21:39;;;;;;;29.60;7.47;;;;;;;-5.10;100.00;101565.03;5073194;28;20043;-68
2023/12/15 01:24:05;;;;;;;26.43;6.80;;;;;;;-4.98;100.00;101579.38;5091611;28;20123;-69
2023/12/15 01:26:31;;;;;;;42.27;7.97;;;;;;;-5.12;100.00;101555.56;5091311;28;20557;-68
2023/12/15 01:28:57;;;;;;;18.53;6.87;;;;;;;-5.22;100.00;101546.31;5091039;28;20258;-68
2023/12/15 01:31:22;;;;;;;26.87;7.40;;;;;;;-4.97;100.00;101581.09;5090462;28;20036;-68
2023/12/15 01:33:48;;;;;;;32.20;8.30;;;;;;;-5.07;100.00;101548.50;5090199;28;20043;-69
2023/12/15 01:36:16;;;;;;;29.97;7.87;;;;;;;-4.98;100.00;101563.81;5091169;28;20106;-69
2023/12/15 01:38:42;;;;;;;22.52;9.25;;;;;;;-5.04;100.00;101563.97;5091324;28;20036;-70
2023/12/15 01:41:08;;;;;;;29.83;10.18;;;;;;;-5.74;100.00;101438.78;5090313;28;20130;-68
2023/12/15 01:43:33;;;;;;;36.03;7.20;;;;;;;-5.02;100.00;101552.66;5091177;28;20043;-68
2023/12/15 01:45:59;;;;;;;28.43;8.17;;;;;;;-5.09;100.00;101529.50;5091322;28;20066;-68
2023/12/15 01:48:25;;;;;;;29.00;7.53;;;;;;;-5.05;100.00;101541.50;5091236;28;20063;-68
2023/12/15 01:50:51;;;;;;;30.47;7.53;;;;;;;-5.12;100.00;101534.78;5091418;28;20522;-68
2023/12/15 01:53:17;;;;;;;29.40;7.93;;;;;;;-5.02;100.00;101554.41;5091215;28;20051;-69
2023/12/15 01:55:43;;;;;;;13.93;7.70;;;;;;;-4.94;100.00;101552.41;5091205;28;20428;-68
2023/12/15 01:58:12;;;;;;;33.70;7.78;;;;;;;-4.99;100.00;101539.56;5094083;28;20556;-67
2023/12/15 02:00:37;;;;;;;29.50;7.60;;;;;;;-5.04;100.00;101556.19;5095273;28;20042;-67
2023/12/15 02:03:03;;;;;;;35.93;10.80;;;;;;;-5.37;100.00;101498.28;5094127;28;20075;-68
2023/12/15 02:05:30;;;;;;;28.57;8.20;;;;;;;-5.16;100.00;101539.22;5095165;28;20036;-68
2023/12/15 02:07:55;;;;;;;33.95;8.02;;;;;;;-5.25;100.00;101528.22;5095472;28;20036;-67
2023/12/15 02:10:21;;;;;;;25.33;7.70;;;;;;;-5.23;100.00;101536.81;5095796;28;20084;-67
2023/12/15 02:12:46;;;;;;;35.27;9.93;;;;;;;-5.37;100.00;101519.91;5095946;28;20101;-66
2023/12/15 02:15:13;;;;;;;34.00;7.37;;;;;;;-5.35;100.00;101544.06;5095493;28;20055;-68
2023/12/15 02:17:39;;;;;;;28.83;7.07;;;;;;;-5.35;100.00;101540.63;5093775;28;20036;-68
2023/12/15 02:20:06;;;;;;;41.83;9.50;;;;;;;-5.43;100.00;101514.88;5094903;28;20035;-67
2023/12/15 02:22:32;;;;;;;30.50;7.50;;;;;;;-5.34;100.00;101519.81;5094874;28;20042;-67
2023/12/15 02:24:58;;;;;;;31.80;8.87;;;;;;;-5.20;100.00;101532.41;5094802;28;20039;-69
2023/12/15 02:27:24;;;;;;;23.40;8.20;;;;;;;-5.20;100.00;101541.97;5094925;28;20119;-68
2023/12/15 02:29:50;;;;;;;26.40;7.87;;;;;;;-5.14;100.00;101547.81;5077347;28;20119;-68
2023/12/15 02:32:15;;;;;;;27.03;6.50;;;;;;;-5.28;100.00;101517.94;5095405;28;20043;-69
2023/12/15 02:34:41;;;;;;;25.23;6.43;;;;;;;-5.35;100.00;101507.72;5094842;28;20085;-67
2023/12/15 02:37:06;;;;;;;28.37;7.23;;;;;;;-5.20;100.00;101547.16;5094617;28;20032;-70
2023/12/15 02:39:32;;;;;;;22.50;6.07;;;;;;;-5.82;100.00;101464.06;5094587;28;20060;-68
2023/12/15 02:41:58;;;;;;;31.47;7.63;;;;;;;-5.67;100.00;101495.66;5094612;28;20154;-68
2023/12/15 02:44:23;;;;;;;26.83;8.03;;;;;;;-5.59;100.00;101510.16;5094353;28;20070;-68
2023/12/15 02:46:49;;;;;;;35.53;7.67;;;;;;;-5.37;100.00;101543.28;5095346;28;20060;-67
2023/12/15 02:49:20;;;;;;;22.73;6.10;;;;;;;-5.34;100.00;101544.94;5093763;28;20035;-69
2023/12/15 02:51:46;;;;;;;34.03;6.47;;;;;;;-5.23;100.00;101537.69;5093118;28;20046;-67
2023/12/15 02:54:12;;;;;;;29.17;7.93;;;;;;;-5.36;100.00;101511.22;5094370;28;20036;-66
2023/12/15 02:56:37;;;;;;;31.13;7.13;;;;;;;-5.26;100.00;101542.09;5094032;28;20477;-66
2023/12/15 02:59:03;;;;;;;25.40;6.33;;;;;;;-5.29;100.00;101543.03;5094131;28;20498;-69
2023/12/15 03:01:30;;;;;;;29.20;7.97;;;;;;;-5.64;100.00;101482.59;5094023;28;20039;-68
2023/12/15 03:03:56;;;;;;;23.30;7.72;;;;;;;-5.21;100.00;101527.25;5093825;28;20042;-66
2023/12/15 03:06:22;;;;;;;25.52;7.55;;;;;;;-4.99;100.00;101533.53;5094144;28;20024;-71
2023/12/15 03:08:48;;;;;;;29.23;8.90;;;;;;;-5.13;100.00;101497.59;5093627;28;20040;-68
2023/12/15 03:11:14;;;;;;;33.30;8.73;;;;;;;-5.02;99.84;101531.03;5093590;28;20031;-69
2023/12/15 03:13:40;;;;;;;38.00;9.87;;;;;;;-5.16;99.30;101547.03;5092411;28;20101;-67
2023/12/15 03:16:11;;;;;;;24.65;7.03;;;;;;;-5.44;100.00;101510.59;5093319;28;20044;-66
2023/12/15 03:18:37;;;;;;;25.02;8.25;;;;;;;-5.35;100.00;101538.03;5093929;28;20085;-69
2023/12/15 03:21:04;;;;;;;24.00;7.60;;;;;;;-5.41;100.00;101549.44;5094070;28;20047;-69
2023/12/15 03:23:30;;;;;;;37.80;9.43;;;;;;;-5.38;100.00;101538.13;5094184;28;20047;-67
2023/12/15 03:25:57;;;;;;;36.28;9.77;;;;;;;-5.49;100.00;101509.88;5093229;28;20036;-67
2023/12/15 03:28:23;;;;;;;39.75;11.10;;;;;;;-5.51;100.00;101531.53;5094590;28;20499;-68
2023/12/15 03:30:48;;;;;;;38.43;9.77;;;;;;;-5.30;100.00;101537.00;5095641;28;20042;-68
2023/12/15 03:33:14;;;;;;;33.63;8.60;;;;;;;-5.56;100.00;101503.13;5094936;28;20028;-68
2023/12/15 03:35:39;;;;;;;37.40;7.83;;;;;;;-5.84;100.00;101463.25;5094728;28;20424;-69
2023/12/15 03:38:05;;;;;;;32.40;10.93;;;;;;;-5.41;100.00;101536.47;5093460;28;20032;-68
2023/12/15 03:40:31;;;;;;;28.00;8.00;;;;;;;-5.61;100.00;101507.59;5094546;28;20078;-66
2023/12/15 03:42:57;;;;;;;28.38;8.07;;;;;;;-5.36;100.00;101542.38;5095485;28;20507;-66
2023/12/15 03:45:25;;;;;;;29.93;8.90;;;;;;;-5.43;100.00;101519.22;5104998;28;20047;-67
2023/12/15 03:47:51;;;;;;;37.88;9.60;;;;;;;-5.18;100.00;101541.03;5101039;28;20077;-68
2023/12/15 03:50:17;;;;;;;26.73;7.88;;;;;;;-5.32;100.00;101523.22;5100810;28;20051;-66
2023/12/15 03:52:43;;;;;;;27.07;8.90;;;;;;;-5.32;100.00;101537.94;5100437;28;20040;-67
2023/12/15 03:55:09;;;;;;;25.03;8.07;;;;;;;-5.49;100.00;101509.00;5097726;28;20856;-70
2023/12/15 03:57:34;;;;;;;26.63;8.30;;;;;;;-5.34;100.00;101518.97;5099474;28;20032;-72
2023/12/15 04:00:00;;;;;;;23.63;9.23;;;;;;;-5.57;100.00;101501.44;5097911;28;20051;-72
2023/12/15 04:02:29;;;;;;;36.93;11.30;;;;;;;-5.49;100.00;101514.19;5099703;28;20036;-67
2023/12/15 04:04:55;;;;;;;27.05;8.70;;;;;;;-5.71;100.00;101501.81;5098731;28;20036;-66
2023/12/15 04:07:20;;;;;;;36.20;11.20;;;;;;;-5.63;100.00;101527.56;5098919;28;20043;-70
2023/12/15 04:09:46;;;;;;;24.53;8.93;;;;;;;-5.89;100.00;101483.31;5100861;28;20063;-69
2023/12/15 04:12:11;;;;;;;41.30;11.33;;;;;;;-5.63;100.00;101524.97;5098311;28;20038;-69
2023/12/15 04:14:37;;;;;;;28.67;10.80;;;;;;;-5.66;100.00;101512.06;5093595;28;20511;-67
2023/12/15 04:17:03;;;;;;;28.93;9.50;;;;;;;-5.69;100.00;101517.34;5093047;28;20062;-70
2023/12/15 04:19:30;;;;;;;34.00;8.53;;;;;;;-5.69;100.00;101541.53;5093961;28;20265;-70
2023/12/15 04:21:55;;;;;;;21.02;7.03;;;;;;;-6.04;100.00;101485.44;5094109;28;20024;-70
2023/12/15 04:24:21;;;;;;;25.73;8.07;;;;;;;-5.76;100.00;101532.22;5094983;28;20047;-68
2023/12/15 04:26:47;;;;;;;31.23;8.67;;;;;;;-5.86;100.00;101520.38;5102138;28;20027;-68
2023/12/15 04:29:12;;;;;;;35.60;12.10;;;;;;;-5.85;100.00;101531.59;5113463;27;20036;-68
2023/12/15 04:31:38;;;;;;;28.90;7.73;;;;;;;-5.78;100.00;101512.38;5111768;28;20100;-68
2023/12/15 04:34:15;;;;;;;24.55;8.93;;;;;;;-5.74;100.00;101527.00;5095308;28;20126;-70
2023/12/15 04:36:40;;;;;;;38.88;11.10;;;;;;;-5.75;100.00;101526.16;5111480;28;20036;-71
2023/12/15 04:39:07;;;;;;;30.87;10.30;;;;;;;-5.78;100.00;101521.03;5112442;28;20027;-69
2023/12/15 04:41:33;;;;;;;31.48;8.88;;;;;;;-5.84;100.00;101502.16;5112700;28;20032;-68
2023/12/15 04:43:58;;;;;;;34.47;9.90;;;;;;;-5.66;100.00;101522.44;5112784;28;20495;-70
2023/12/15 04:46:27;;;;;;;26.70;8.30;;;;;;;-5.77;100.00;101503.72;5112448;28;20046;-71
2023/12/15 04:48:56;;;;;;;31.85;8.85;;;;;;;-5.86;100.00;101510.00;5112444;28;20459;-69
2023/12/15 04:51:22;;;;;;;30.88;10.43;;;;;;;-5.97;100.00;101502.53;5111734;28;20039;-70
2023/12/15 04:53:48;;;;;;;32.47;8.93;;;;;;;-5.83;100.00;101509.06;5112411;28;20054;-71
2023/12/15 04:56:14;;;;;;;40.80;9.00;;;;;;;-5.91;100.00;101490.28;5111363;28;20114;-67
2023/12/15 04:58:44;;;;;;;31.58;9.95;;;;;;;-5.80;100.00;101519.34;5112477;28;20061;-68
2023/12/15 05:01:12;;;;;;;25.65;8.20;;;;;;;-5.76;100.00;101519.25;5112370;28;20566;-68
2023/12/15 05:03:44;;;;;;;26.30;8.63;;;;;;;-5.83;100.00;101498.69;5111762;28;20130;-71
2023/12/15 05:06:20;;;;;;;21.77;7.40;;;;;;;-5.74;100.00;101508.84;5112503;28;20043;-68
2023/12/15 05:08:47;;;;;;;28.95;7.43;;;;;;;-5.86;100.00;101488.38;5112417;28;20213;-68
2023/12/15 05:11:14;;;;;;;39.05;10.80;;;;;;;-5.99;100.00;101483.56;5112197;28;20035;-72
2023/12/15 05:13:40;;;;;;;33.50;9.20;;;;;;;-5.89;100.00;101501.47;5112087;28;20036;-69
2023/12/15 05:16:07;;;;;;;35.90;8.25;;;;;;;-5.78;100.00;101508.06;5112110;28;20043;-70
2023/12/15 05:18:33;;;;;;;21.85;8.38;;;;;;;-5.75;100.00;101513.19;5110811;28;20069;-68
2023/12/15 05:20:59;;;;;;;25.63;10.40;;;;;;;-6.08;100.00;101463.03;5112521;28;20050;-68
2023/12/15 05:23:25;;;;;;;38.45;11.25;;;;;;;-6.02;100.00;101457.72;5112176;28;20032;-68
2023/12/15 05:25:51;;;;;;;20.33;7.75;;;;;;;-5.70;100.00;101519.09;5110995;28;20034;-67
2023/12/15 05:28:17;;;;;;;29.47;7.77;;;;;;;-5.72;100.00;101509.66;5112079;28;20042;-69
2023/12/15 05:30:42;;;;;;;34.37;10.17;;;;;;;-5.67;100.00;101519.00;5113415;28;20058;-68
2023/12/15 05:33:08;;;;;;;39.73;9.63;;;;;;;-5.86;100.00;101488.38;5116519;28;20114;-67
2023/12/15 05:35:34;;;;;;;22.17;8.37;;;;;;;-5.78;100.00;101510.66;5116491;28;20036;-67
2023/12/15 05:37:59;;;;;;;23.23;9.27;;;;;;;-5.96;100.00;101487.81;5116209;28;20047;-68
2023/12/15 05:40:25;;;;;;;45.40;12.10;;;;;;;-5.68;100.00;101519.03;5116215;28;20181;-67
2023/12/15 05:42:51;;;;;;;29.53;7.40;;;;;;;-5.72;100.00;101471.56;5116087;28;20053;-67
2023/12/15 05:45:16;;;;;;;33.13;8.77;;;;;;;-5.38;100.00;101512.16;5115978;28;20032;-70
2023/12/15 05:47:42;;;;;;;27.47;9.83;;;;;;;-5.61;100.00;101466.06;5116851;28;20036;-71
2023/12/15 05:50:07;;;;;;;29.20;8.93;;;;;;;-5.52;100.00;101493.50;5116699;28;20023;-69
2023/12/15 05:52:33;;;;;;;27.80;8.60;;;;;;;-5.57;100.00;101490.19;5116290;28;20487;-68
2023/12/15 05:54:59;;;;;;;26.50;8.73;;;;;;;-5.62;100.00;101498.13;5116290;27;20039;-69
2023/12/15 05:57:24;;;;;;;31.67;8.30;;;;;;;-6.13;100.00;101418.25;5116355;28;20067;-67
2023/12/15 05:59:50;;;;;;;19.13;10.57;;;;;;;-5.81;100.00;101468.34;5116202;28;20459;-68
2023/12/15 06:02:16;;;;;;;36.07;9.70;;;;;;;-5.53;100.00;101513.41;5115198;28;20039;-67
2023/12/15 06:04:41;;;;;;;26.23;8.87;;;;;;;-5.69;100.00;101470.63;5115705;28;20505;-69
2023/12/15 06:07:07;;;;;;;29.67;10.07;;;;;;;-5.34;100.00;101524.16;5115813;28;20039;-67
2023/12/15 06:09:33;;;;;;;31.37;9.83;;;;;;;-5.30;100.00;101530.97;5115744;28;20043;-66
2023/12/15 06:11:58;;;;;;;28.90;8.40;;;;;;;-5.31;100.00;101518.88;5116115;28;20035;-67
2023/12/15 06:14:27;;;;;;;32.33;10.67;;;;;;;-5.24;100.00;101522.13;5115213;28;20062;-67
2023/12/15 06:16:52;;;;;;;35.65;8.25;;;;;;;-5.30;100.00;101515.38;5115554;28;20103;-67
2023/12/15 06:19:18;;;;;;;22.67;7.53;;;;;;;-5.26;100.00;101526.53;5115387;28;20421;-68
2023/12/15 06:21:43;;;;;;;34.50;8.53;;;;;;;-5.27;100.00;101520.47;5117294;28;20043;-69
2023/12/15 06:24:09;;;;;;;22.57;7.83;;;;;;;-5.28;100.00;101507.56;5119470;28;20035;-70
2023/12/15 06:26:34;;;;;;;15.83;7.90;;;;;;;-5.11;100.00;101513.13;5113958;28;20066;-67
2023/12/15 06:29:00;;;;;;;26.33;9.23;;;;;;;-5.16;100.00;101502.03;5115060;28;20036;-68
2023/12/15 06:31:27;;;;;;;28.03;9.37;;;;;;;-5.25;100.00;101507.47;5115395;28;20394;-69
2023/12/15 06:33:53;;;;;;;27.92;9.70;;;;;;;-5.38;100.00;101505.22;5114830;27;20094;-69
2023/12/15 06:36:18;;;;;;;32.73;9.00;;;;;;;-5.40;100.00;101509.59;5115072;28;20043;-68
2023/12/15 06:38:44;;;;;;;26.63;6.90;;;;;;;-5.65;100.00;101473.09;5114525;28;20039;-67
2023/12/15 06:41:11;;;;;;;22.08;9.23;;;;;;;-5.75;100.00;101460.44;5114520;28;20080;-66
2023/12/15 06:43:45;;;;;;;21.23;8.05;;;;;;;-5.68;100.00;101503.47;5113390;28;20046;-66
2023/12/15 06:46:11;;;;;;;32.03;8.32;;;;;;;-5.61;100.00;101511.03;5113334;28;20176;-68
2023/12/15 06:48:37;;;;;;;28.92;9.77;;;;;;;-5.67;100.00;101498.25;5113149;28;20057;-66
2023/12/15 06:51:04;;;;;;;37.93;10.80;;;;;;;-5.69;100.00;101502.63;5113252;28;20028;-70
2023/12/15 06:53:30;;;;;;;35.70;8.98;;;;;;;-5.42;100.00;101521.78;5114009;28;20418;-67
2023/12/15 06:55:55;;;;;;;20.70;9.07;;;;;;;-5.35;100.00;101520.72;5114489;28;20039;-68
2023/12/15 06:58:21;;;;;;;24.43;9.13;;;;;;;-5.50;100.00;101510.75;5114317;28;20036;-69
2023/12/15 07:00:47;;;;;;;29.70;8.30;;;;;;;-5.60;100.00;101496.31;5111955;28;20067;-67
2023/12/15 07:03:12;;;;;;;24.10;9.77;;;;;;;-5.56;100.00;101523.88;5102329;28;20577;-68
2023/12/15 07:05:38;;;;;;;63.53;26.97;;;;;;;-5.69;100.00;101518.19;5103871;28;20035;-67
2023/12/15 07:08:04;;;;;;;39.23;10.77;;;;;;;-5.66;100.00;101536.28;5099737;27;20383;-68
2023/12/15 07:10:30;;;;;;;33.33;9.53;;;;;;;-5.79;100.00;101502.91;5102597;28;20024;-69
2023/12/15 07:12:55;;;;;;;34.17;10.67;;;;;;;-5.70;100.00;101536.41;5100722;28;20044;-68
2023/12/15 07:15:22;;;;;;;27.97;9.47;;;;;;;-5.68;100.00;101538.06;5102430;28;20196;-67
2023/12/15 07:17:48;;;;;;;44.28;10.68;;;;;;;-5.78;100.00;101527.94;5101116;28;20387;-67
2023/12/15 07:20:13;;;;;;;28.67;10.17;;;;;;;-5.86;100.00;101514.34;5101143;28;20054;-70
2023/12/15 07:22:39;;;;;;;28.87;9.33;;;;;;;-5.94;100.00;101512.81;5097322;28;20125;-68
2023/12/15 07:25:05;;;;;;;27.70;10.00;;;;;;;-5.76;100.00;101523.59;5095277;28;20119;-67
2023/12/15 07:27:31;;;;;;;20.70;9.55;;;;;;;-5.78;100.00;101521.03;5100605;28;20032;-68
2023/12/15 07:29:56;;;;;;;53.70;10.57;;;;;;;-5.70;100.00;101518.25;5100942;28;20395;-68
2023/12/15 07:32:22;;;;;;;29.70;11.20;;;;;;;-5.77;100.00;101514.13;5108671;28;20100;-71
2023/12/15 07:34:47;;;;;;;32.37;10.27;;;;;;;-5.82;100.00;101521.97;5112917;28;20043;-66
2023/12/15 07:37:13;;;;;;;39.37;11.60;;;;;;;-6.00;100.00;101476.69;5100779;28;20044;-66
2023/12/15 07:39:38;;;;;;;27.77;9.20;;;;;;;-5.86;100.00;101511.75;5105527;28;20043;-67
2023/12/15 07:42:04;;;;;;;22.30;10.10;;;;;;;-5.84;100.00;101512.53;5106468;28;20043;-67
2023/12/15 07:44:30;;;;;;;50.53;14.63;;;;;;;-5.75;100.00;101530.47;5103495;28;20036;-67
2023/12/15 07:46:57;;;;;;;22.87;9.50;;;;;;;-5.97;100.00;101494.75;5102243;28;20036;-66
2023/12/15 07:49:24;;;;;;;34.55;10.18;;;;;;;-5.82;100.00;101516.78;5103236;28;20043;-68
2023/12/15 07:51:50;;;;;;;31.20;10.05;;;;;;;-5.97;100.00;101476.59;5103039;28;20042;-69
2023/12/15 07:54:16;;;;;;;28.25;11.15;;;;;;;-5.56;100.00;101523.88;5099602;28;20436;-68
2023/12/15 07:56:42;;;;;;;37.55;11.18;;;;;;;-6.22;100.00;101408.13;5112992;28;20062;-66
2023/12/15 07:59:08;;;;;;;41.17;12.33;;;;;;;-5.89;100.00;101478.13;5113517;28;20494;-71
2023/12/15 08:01:34;;;;;;;37.67;11.88;;;;;;;-5.69;100.00;101522.53;5107188;28;20285;-66
2023/12/15 08:04:00;;;;;;;40.58;10.75;;;;;;;-5.62;100.00;101531.84;5100900;28;20040;-68
2023/12/15 08:06:26;;;;;;;39.27;11.27;;;;;;;-5.53;100.00;101528.13;5107102;27;20085;-69
2023/12/15 08:08:52;;;;;;;39.87;13.20;;;;;;;-5.42;100.00;101534.75;5103902;28;20173;-67
2023/12/15 08:11:19;;;;;;;51.97;14.65;;;;;;;-5.43;100.00;101522.69;5102901;28;20517;-68
2023/12/15 08:13:44;;;;;;;26.63;11.30;;;;;;;-5.36;100.00;101532.00;5112881;28;20059;-68
2023/12/15 08:16:11;;;;;;;38.35;14.90;;;;;;;-5.26;100.00;101529.13;5108648;28;20096;-71
2023/12/15 08:18:37;;;;;;;35.75;10.80;;;;;;;-5.34;100.00;101524.16;5104908;28;20043;-67
2023/12/15 08:21:03;;;;;;;56.80;13.33;;;;;;;-5.42;100.00;101534.75;5103648;28;20035;-66
2023/12/15 08:23:29;;;;;;;39.13;14.25;;;;;;;-5.59;100.00;101511.00;5107148;28;20554;-70
2023/12/15 08:25:54;;;;;;;36.83;12.37;;;;;;;-5.66;100.00;101507.72;5112885;28;20121;-66
2023/12/15 08:28:20;;;;;;;29.40;11.10;;;;;;;-5.43;100.00;101530.47;5113679;28;20061;-69
2023/12/15 08:30:48;;;;;;;37.20;11.73;;;;;;;-5.42;100.00;101542.56;5112777;28;20024;-65
2023/12/15 08:33:13;;;;;;;49.85;12.77;;;;;;;-5.50;100.00;101520.28;5112722;28;20039;-65
2023/12/15 08:35:39;;;;;;;37.67;12.57;;;;;;;-5.47;100.00;101512.44;5112688;28;20043;-67
2023/12/15 08:38:05;;;;;;;32.83;12.30;;;;;;;-5.25;100.00;101538.63;5112597;28;20496;-67
2023/12/15 08:40:30;;;;;;;31.03;9.77;;;;;;;-5.23;100.00;101537.69;5112381;28;20122;-69
2023/12/15 08:42:56;;;;;;;29.30;11.83;;;;;;;-5.17;100.00;101537.53;5112322;28;20405;-68
2023/12/15 08:45:22;;;;;;;34.63;12.27;;;;;;;-5.23;100.00;101529.03;5112219;28;20034;-65
2023/12/15 08:47:48;;;;;;;29.00;11.03;;;;;;;-5.42;100.00;101494.97;5111383;28;20039;-69
2023/12/15 08:50:14;;;;;;;30.40;10.68;;;;;;;-5.32;100.00;101518.03;5112309;28;20023;-70
2023/12/15 08:52:40;;;;;;;34.00;11.20;;;;;;;-5.23;100.00;101518.66;5112246;28;20139;-66
2023/12/15 08:55:06;;;;;;;26.93;11.17;;;;;;;-5.19;100.00;101502.09;5112599;28;20459;-68
2023/12/15 08:57:32;;;;;;;31.33;12.23;;;;;;;-5.14;100.00;101527.03;5112953;28;20043;-70
2023/12/15 08:59:58;;;;;;;20.70;8.90;;;;;;;-5.04;100.00;101518.06;5114398;28;20039;-70
2023/12/15 09:02:25;;;;;;;40.13;12.10;;;;;;;-4.85;100.00;101527.94;5113520;28;20321;-67
2023/12/15 09:04:52;;;;;;;29.10;11.85;;;;;;;-4.99;100.00;101504.94;5112944;28;20339;-68
2023/12/15 09:07:18;;;;;;;38.03;13.00;;;;;;;-4.91;100.00;101510.78;5112573;28;20047;-67
2023/12/15 09:09:43;;;;;;;43.17;13.75;;;;;;;-4.96;100.00;101491.88;5112388;27;20053;-66
2023/12/15 09:12:10;;;;;;;33.43;11.37;;;;;;;-4.54;100.00;101533.03;5106017;28;20039;-69
2023/12/15 09:14:36;;;;;;;33.80;12.68;;;;;;;-4.56;100.00;101514.06;5100452;28;20063;-70
2023/12/15 09:17:03;;;;;;;30.08;10.55;;;;;;;-4.61;99.45;101537.59;5096171;28;20052;-67
2023/12/15 09:19:30;;;;;;;32.40;11.10;;;;;;;-4.80;100.00;101511.31;5091574;28;20032;-65
2023/12/15 09:21:56;;;;;;;42.92;12.27;;;;;;;-4.70;99.37;101524.84;5091284;28;20054;-67
2023/12/15 09:27:36;;;;;;;41.95;11.82;;;;;;;-4.48;100.00;101527.66;5088170;28;20043;-68
2023/12/15 09:30:02;;;;;;;25.00;10.68;;;;;;;-4.52;98.87;101518.25;5092316;28;20040;-63
2023/12/15 09:32:32;;;;;;;27.08;10.85;;;;;;;-4.93;99.38;101452.81;5090479;28;20065;-63
2023/12/15 09:34:57;;;;;;;34.80;12.07;;;;;;;-4.54;100.00;101517.44;5091736;28;20050;-68
2023/12/15 09:37:23;;;;;;;26.93;10.23;;;;;;;-4.75;99.54;101482.56;5091583;28;20112;-66
2023/12/15 09:39:49;;;;;;;29.80;10.83;;;;;;;-4.53;99.66;101520.00;5091294;28;20387;-66
2023/12/15 09:42:14;;;;;;;49.00;14.00;;;;;;;-4.59;100.00;101506.34;5091328;28;20066;-64
2023/12/15 09:44:40;;;;;;;29.80;10.87;;;;;;;-4.74;99.05;101503.31;5091403;28;20811;-65
2023/12/15 09:47:07;;;;;;;31.77;9.33;;;;;;;-4.84;100.00;101488.91;5090149;28;20043;-65
2023/12/15 09:49:34;;;;;;;26.38;10.00;;;;;;;-4.77;100.00;101505.16;5090296;28;20067;-63
2023/12/15 09:52:02;;;;;;;33.83;10.02;;;;;;;-4.70;100.00;101506.66;5091190;28;20070;-66
2023/12/15 09:54:28;;;;;;;31.75;10.02;;;;;;;-4.64;98.61;101510.81;5091039;28;20075;-64
2023/12/15 09:56:55;;;;;;;26.10;10.13;;;;;;;-4.81;99.25;101514.81;5091542;28;20050;-64
2023/12/15 09:59:21;;;;;;;25.75;10.65;;;;;;;-4.92;100.00;101522.06;5098673;28;20031;-65
2023/12/15 10:01:47;;;;;;;28.45;11.15;;;;;;;-4.90;100.00;101515.09;5104857;28;20131;-66
2023/12/15 10:04:13;;;;;;;20.13;8.73;;;;;;;-4.91;100.00;101516.00;5102332;28;20034;-66
2023/12/15 10:06:39;;;;;;;22.60;9.53;;;;;;;-4.75;100.00;101519.81;5099357;28;20147;-64
2023/12/15 10:09:13;;;;;;;43.27;12.70;;;;;;;-4.67;100.00;101497.03;5102804;28;20047;-65
2023/12/15 10:11:43;;;;;;;25.85;11.98;;;;;;;-4.58;100.00;101489.84;5100978;28;20494;-65
2023/12/15 10:14:11;;;;;;;25.47;11.23;;;;;;;-4.55;99.28;101497.56;5104349;28;20140;-66
2023/12/15 10:16:38;;;;;;;37.00;13.82;;;;;;;-4.70;99.62;101491.91;5100734;28;20039;-66
2023/12/15 10:19:05;;;;;;;52.20;13.60;;;;;;;-4.64;100.00;101508.22;5104946;28;20081;-68
2023/12/15 10:21:32;;;;;;;26.75;11.05;;;;;;;-4.44;100.00;101518.84;5106885;28;20040;-65
2023/12/15 10:23:59;;;;;;;29.95;13.00;;;;;;;-4.48;100.00;101502.50;5103624;28;20039;-63
2023/12/15 10:26:26;;;;;;;31.45;9.63;;;;;;;-4.87;98.45;101463.03;5103298;28;20032;-68
2023/12/15 10:28:53;;;;;;;29.65;9.88;;;;;;;-4.63;99.54;101525.50;5102699;28;20062;-65
2023/12/15 10:31:18;;;;;;;28.73;9.82;;;;;;;-4.58;100.00;101531.44;5106021;28;20061;-65
2023/12/15 10:33:45;;;;;;;23.07;9.87;;;;;;;-4.83;100.00;101475.03;5111801;28;20035;-63
2023/12/15 10:36:13;;;;;;;25.38;9.93;;;;;;;-4.44;99.84;101524.91;5105282;28;20040;-65
2023/12/15 10:38:40;;;;;;;24.70;8.98;;;;;;;-4.45;100.00;101520.59;5107428;28;20040;-66
2023/12/15 10:41:07;;;;;;;21.85;9.13;;;;;;;-4.56;100.00;101504.50;5102250;28;20040;-66
2023/12/15 10:43:34;;;;;;;39.75;15.30;;;;;;;-4.47;100.00;101513.75;5104479;28;20032;-68
2023/12/15 10:46:02;;;;;;;33.25;10.15;;;;;;;-4.27;100.00;101523.53;5102833;28;20036;-66
2023/12/15 10:48:30;;;;;;;32.17;10.75;;;;;;;-4.33;99.97;101495.13;5106629;28;20036;-67
2023/12/15 10:50:58;;;;;;;17.27;8.88;;;;;;;-4.22;99.89;101504.25;5104665;28;20032;-67
2023/12/15 10:53:24;;;;;;;32.70;9.00;;;;;;;-4.21;100.00;101505.97;5106534;28;20043;-67
2023/12/15 10:55:51;;;;;;;34.70;10.95;;;;;;;-4.33;100.00;101506.38;5085839;28;20329;-70
2023/12/15 10:58:18;;;;;;;26.42;9.13;;;;;;;-4.42;100.00;101496.25;5102008;28;20036;-66
2023/12/15 11:00:46;;;;;;;27.48;11.85;;;;;;;-4.40;100.00;101505.69;5099813;28;20089;-65
2023/12/15 11:03:12;;;;;;;25.35;9.40;;;;;;;-4.41;100.00;101498.78;5094142;28;20040;-68
2023/12/15 11:05:40;;;;;;;19.80;9.23;;;;;;;-4.37;100.00;101509.94;5097585;28;20565;-71